Time;durP1;ratioP1;P1;durP2;ratioP2;P2;SDS_P1;SDS_P2;PMS_P1;PMS_P2;Temp;Humidity;BMP_temperature;BMP_pressure;BME280_temperature;BME280_humidity;BME280_pressure;Samples;Min_cycle;Max_cycle;Signal;HPM_P1;HPM_P2
2022/12/10 00:01:05;;;;;;;31.00;17.73;;;0.60;99.90;;;;;;5078099;28;20491;-77
2022/12/10 00:03:34;;;;;;;28.07;15.53;;;0.60;99.90;;;;;;5076032;28;20942;-77
2022/12/10 00:06:02;;;;;;;30.83;16.13;;;0.60;99.90;;;;;;5069635;28;20552;-77
2022/12/10 00:08:29;;;;;;;24.83;14.83;;;0.60;99.90;;;;;;5076419;28;20794;-77
2022/12/10 00:10:56;;;;;;;31.57;17.00;;;0.60;99.90;;;;;;5074622;28;20991;-77
2022/12/10 00:13:23;;;;;;;26.00;17.70;;;0.60;99.90;;;;;;5082075;28;20997;-77
2022/12/10 00:15:50;;;;;;;23.43;15.47;;;0.60;99.90;;;;;;5073166;28;20552;-77
2022/12/10 00:18:17;;;;;;;22.67;16.17;;;0.70;99.90;;;;;;5065987;28;20581;-78
2022/12/10 00:20:45;;;;;;;29.73;17.87;;;0.70;99.90;;;;;;5081357;28;20961;-77
2022/12/10 00:23:12;;;;;;;28.77;16.33;;;0.60;99.90;;;;;;5079286;28;20451;-78
2022/12/10 00:25:39;;;;;;;23.73;15.57;;;0.60;99.90;;;;;;5068148;28;20477;-78
2022/12/10 00:28:06;;;;;;;25.17;16.57;;;0.70;99.90;;;;;;5074972;28;20559;-78
2022/12/10 00:30:34;;;;;;;20.73;15.17;;;0.70;99.90;;;;;;5078333;28;20502;-75
2022/12/10 00:33:01;;;;;;;27.33;16.80;;;0.80;99.90;;;;;;5079001;28;20548;-75
2022/12/10 00:35:28;;;;;;;23.27;15.83;;;0.80;99.90;;;;;;5073296;28;20566;-76
2022/12/10 00:37:56;;;;;;;22.87;14.47;;;0.80;99.90;;;;;;5072719;28;20903;-76
2022/12/10 00:40:23;;;;;;;21.23;16.13;;;0.70;99.90;;;;;;5077917;28;20557;-76
2022/12/10 00:42:50;;;;;;;22.10;15.13;;;0.70;99.90;;;;;;5080989;28;20487;-76
2022/12/10 00:45:17;;;;;;;23.77;15.77;;;0.70;99.90;;;;;;5077135;28;20563;-76
2022/12/10 00:47:44;;;;;;;24.90;14.73;;;0.80;99.90;;;;;;5067874;28;20482;-76
2022/12/10 00:50:11;;;;;;;25.67;16.10;;;0.80;99.90;;;;;;5068942;28;20604;-77
2022/12/10 00:52:38;;;;;;;22.47;14.43;;;0.70;99.90;;;;;;5076041;28;20914;-77
2022/12/10 00:55:07;;;;;;;22.97;14.60;;;0.70;99.90;;;;;;5074693;28;20528;-77
2022/12/10 00:57:34;;;;;;;23.43;14.57;;;0.80;99.90;;;;;;5080005;28;20722;-77
2022/12/10 01:00:01;;;;;;;22.03;15.37;;;0.80;99.90;;;;;;5068969;28;20487;-77
2022/12/10 01:02:27;;;;;;;24.23;14.70;;;0.80;99.90;;;;;;5064555;28;20938;-77
2022/12/10 01:04:55;;;;;;;23.27;14.57;;;0.90;99.90;;;;;;5069615;28;20487;-77
2022/12/10 01:07:22;;;;;;;22.23;14.27;;;0.80;99.90;;;;;;5074530;28;20486;-77
2022/12/10 01:09:49;;;;;;;20.00;14.50;;;0.70;99.90;;;;;;5065778;28;20502;-77
2022/12/10 01:12:17;;;;;;;20.37;14.03;;;0.70;99.90;;;;;;5079810;28;20502;-77
2022/12/10 01:14:44;;;;;;;17.30;12.23;;;0.70;99.90;;;;;;5083710;28;20517;-77
2022/12/10 01:17:11;;;;;;;21.50;14.27;;;0.70;99.90;;;;;;5078655;28;20601;-77
2022/12/10 01:19:38;;;;;;;19.23;11.63;;;0.70;99.90;;;;;;5083201;28;21134;-77
2022/12/10 01:22:05;;;;;;;18.47;11.83;;;0.70;99.90;;;;;;5076885;28;20482;-77
2022/12/10 01:24:32;;;;;;;19.63;12.37;;;0.70;99.90;;;;;;5088906;28;20479;-77
2022/12/10 01:26:59;;;;;;;22.97;14.17;;;0.70;99.90;;;;;;5076210;28;20491;-77
2022/12/10 01:29:28;;;;;;;18.83;13.23;;;0.70;99.90;;;;;;5077386;28;20482;-77
2022/12/10 01:31:56;;;;;;;21.80;13.57;;;0.70;99.90;;;;;;5082602;28;20466;-77
2022/12/10 01:34:24;;;;;;;17.77;12.27;;;0.70;99.90;;;;;;5089181;28;20543;-77
2022/12/10 01:36:54;;;;;;;19.60;11.77;;;0.80;99.90;;;;;;5082318;28;20933;-77
2022/12/10 01:39:22;;;;;;;18.33;10.97;;;0.80;99.90;;;;;;5085755;28;20477;-77
2022/12/10 01:41:52;;;;;;;20.70;12.90;;;0.70;99.90;;;;;;5088409;28;20849;-77
2022/12/10 01:44:55;;;;;;;18.90;11.50;;;0.70;99.90;;;;;;5069778;28;20495;-77
2022/12/10 01:47:24;;;;;;;20.97;12.13;;;0.60;99.90;;;;;;5082794;28;20478;-77
2022/12/10 01:49:51;;;;;;;17.33;11.90;;;0.60;99.90;;;;;;5072484;28;20467;-77
2022/12/10 01:52:19;;;;;;;17.77;11.23;;;0.60;99.90;;;;;;5073429;28;20446;-77
2022/12/10 01:54:47;;;;;;;21.97;14.27;;;0.60;99.90;;;;;;5087777;28;20961;-77
2022/12/10 01:57:18;;;;;;;18.03;11.90;;;0.60;99.90;;;;;;5082027;28;20470;-77
2022/12/10 01:59:47;;;;;;;17.50;11.77;;;0.70;99.90;;;;;;5088416;28;20475;-77
2022/12/10 02:02:23;;;;;;;18.00;11.63;;;0.70;99.90;;;;;;5075228;28;20490;-77
2022/12/10 02:05:03;;;;;;;23.77;14.30;;;0.80;99.90;;;;;;5086486;28;20463;-77
2022/12/10 02:07:43;;;;;;;21.23;13.70;;;0.80;99.90;;;;;;5083042;28;20555;-77
2022/12/10 02:10:18;;;;;;;27.13;14.93;;;0.80;99.90;;;;;;5078226;28;20481;-77
2022/12/10 02:12:49;;;;;;;20.73;13.47;;;0.80;99.90;;;;;;5080880;28;20463;-77
2022/12/10 02:15:19;;;;;;;30.17;14.20;;;0.80;99.90;;;;;;5065805;28;21035;-77
2022/12/10 02:17:49;;;;;;;22.93;14.70;;;0.80;99.90;;;;;;5080006;28;20868;-77
2022/12/10 02:20:22;;;;;;;22.53;13.97;;;0.80;99.90;;;;;;5074376;28;20994;-77
2022/12/10 02:22:51;;;;;;;20.83;13.50;;;0.80;99.90;;;;;;5071648;28;20499;-77
2022/12/10 02:25:22;;;;;;;20.63;12.70;;;0.70;99.90;;;;;;5074643;28;20491;-77
2022/12/10 02:27:54;;;;;;;27.50;14.80;;;0.70;99.90;;;;;;5080729;28;20478;-77
2022/12/10 02:30:23;;;;;;;24.60;14.60;;;0.70;99.90;;;;;;5076073;28;20536;-77
2022/12/10 02:32:51;;;;;;;23.73;14.03;;;0.70;99.90;;;;;;5084624;28;20946;-77
2022/12/10 02:35:22;;;;;;;24.07;14.77;;;0.70;99.90;;;;;;5085526;28;21485;-77
2022/12/10 02:37:52;;;;;;;23.20;14.60;;;0.70;99.90;;;;;;5088360;28;20469;-77
2022/12/10 02:40:23;;;;;;;20.90;13.40;;;0.70;99.90;;;;;;5074148;28;20508;-77
2022/12/10 02:42:52;;;;;;;21.40;13.80;;;0.70;99.90;;;;;;5084412;28;20488;-78
2022/12/10 02:45:21;;;;;;;19.03;12.20;;;0.70;99.90;;;;;;5074820;28;20820;-77
2022/12/10 02:47:50;;;;;;;25.30;13.73;;;0.70;99.90;;;;;;5078094;28;20504;-77
2022/12/10 02:50:20;;;;;;;24.37;13.83;;;0.70;99.90;;;;;;5084124;28;20910;-77
2022/12/10 02:52:47;;;;;;;19.47;13.37;;;0.70;99.90;;;;;;5080684;28;20464;-77
2022/12/10 02:55:15;;;;;;;20.87;11.23;;;0.70;99.90;;;;;;5073675;28;20494;-77
2022/12/10 02:57:49;;;;;;;24.03;12.60;;;0.60;99.90;;;;;;5074505;28;20971;-77
2022/12/10 03:00:19;;;;;;;19.17;12.43;;;0.70;99.90;;;;;;5074544;28;20535;-77
2022/12/10 03:03:17;;;;;;;22.10;13.53;;;0.70;99.90;;;;;;5080683;28;20466;-77
2022/12/10 03:05:51;;;;;;;20.47;11.40;;;0.60;99.90;;;;;;5070719;28;20630;-77
2022/12/10 03:08:23;;;;;;;19.93;13.90;;;0.60;99.90;;;;;;5065288;28;21006;-77
2022/12/10 03:10:56;;;;;;;20.70;13.07;;;0.60;99.90;;;;;;5069193;28;20509;-77
2022/12/10 03:13:29;;;;;;;18.97;11.37;;;0.60;99.90;;;;;;5064341;28;20939;-77
2022/12/10 03:15:57;;;;;;;23.20;12.70;;;0.60;99.90;;;;;;5072779;28;20496;-77
2022/12/10 03:18:28;;;;;;;21.83;12.07;;;0.60;99.90;;;;;;5065050;28;20461;-77
2022/12/10 03:20:59;;;;;;;20.90;12.77;;;0.60;99.90;;;;;;5070049;28;20535;-77
2022/12/10 03:23:30;;;;;;;21.50;12.50;;;0.70;99.90;;;;;;5065347;28;21266;-77
2022/12/10 03:25:57;;;;;;;21.50;12.60;;;0.70;99.90;;;;;;5066638;28;20443;-77
2022/12/10 03:28:26;;;;;;;22.83;13.40;;;0.70;99.90;;;;;;5064664;28;20455;-77
2022/12/10 03:30:56;;;;;;;18.53;11.83;;;0.70;99.90;;;;;;5067850;28;20495;-77
2022/12/10 03:33:23;;;;;;;21.17;12.60;;;0.70;99.90;;;;;;5064530;28;20484;-77
2022/12/10 03:35:51;;;;;;;20.50;12.87;;;0.80;99.90;;;;;;5065906;28;20593;-75
2022/12/10 03:38:19;;;;;;;20.70;11.73;;;0.70;99.90;;;;;;5064351;28;20513;-74
2022/12/10 03:40:46;;;;;;;22.63;13.50;;;0.70;99.90;;;;;;5066245;28;20525;-74
2022/12/10 03:43:14;;;;;;;20.73;13.50;;;0.80;99.90;;;;;;5067603;28;20541;-74
2022/12/10 03:45:42;;;;;;;17.77;12.00;;;0.70;99.90;;;;;;5073609;28;20546;-74
2022/12/10 03:48:09;;;;;;;19.83;14.60;;;0.80;99.90;;;;;;5072863;28;20903;-74
2022/12/10 03:50:36;;;;;;;18.57;13.23;;;0.80;99.90;;;;;;5069346;28;20458;-74
2022/12/10 03:53:04;;;;;;;20.00;11.93;;;0.80;99.90;;;;;;5067898;28;20540;-74
2022/12/10 03:55:32;;;;;;;21.50;12.50;;;0.80;99.90;;;;;;5083550;28;20575;-74
2022/12/10 03:57:59;;;;;;;22.80;13.17;;;0.80;99.90;;;;;;5077681;28;20466;-74
2022/12/10 04:00:26;;;;;;;17.77;12.53;;;0.80;99.90;;;;;;5078206;28;20541;-74
2022/12/10 04:02:53;;;;;;;20.50;12.53;;;0.70;99.90;;;;;;5076562;28;20490;-74
2022/12/10 04:05:20;;;;;;;16.53;12.10;;;0.70;99.90;;;;;;5084118;28;20902;-74
2022/12/10 04:07:47;;;;;;;18.13;12.57;;;0.60;99.90;;;;;;5077373;28;20520;-74
2022/12/10 04:10:15;;;;;;;19.30;12.43;;;0.60;99.90;;;;;;5076542;28;20490;-75
2022/12/10 04:12:42;;;;;;;17.67;11.67;;;0.60;99.90;;;;;;5085607;28;20471;-76
2022/12/10 04:17:54;;;;;;;19.47;12.37;;;0.50;99.90;;;;;;5083941;28;20807;-74
2022/12/10 04:28:36;;;;;;;21.80;13.67;;;0.70;99.90;;;;;;5081768;28;20453;-74
2022/12/10 04:31:03;;;;;;;17.30;11.67;;;0.60;99.90;;;;;;5084757;28;20847;-74
2022/12/10 04:33:30;;;;;;;18.80;12.07;;;0.60;99.90;;;;;;5076459;28;20498;-74
2022/12/10 04:35:57;;;;;;;16.47;10.67;;;0.60;99.90;;;;;;5085544;28;20487;-74
2022/12/10 04:38:24;;;;;;;21.23;11.17;;;0.60;99.90;;;;;;5069183;28;20490;-75
2022/12/10 04:40:52;;;;;;;21.30;13.50;;;0.50;99.90;;;;;;5077576;28;20918;-75
2022/12/10 04:43:19;;;;;;;16.77;11.80;;;0.60;99.90;;;;;;5084368;28;20556;-74
2022/12/10 04:45:46;;;;;;;21.57;14.47;;;0.70;99.90;;;;;;5074508;28;21019;-74
2022/12/10 04:48:13;;;;;;;18.17;11.73;;;0.60;99.90;;;;;;5080977;28;20448;-75
2022/12/10 04:50:40;;;;;;;22.47;14.33;;;0.70;99.90;;;;;;5079214;28;20494;-77
2022/12/10 04:53:07;;;;;;;23.00;13.03;;;0.60;99.90;;;;;;5081575;28;20486;-77
2022/12/10 04:55:34;;;;;;;22.00;12.67;;;0.60;99.90;;;;;;5078371;28;20525;-77
2022/12/10 04:58:02;;;;;;;15.80;12.50;;;0.60;99.90;;;;;;5073509;28;20460;-77
2022/12/10 05:00:29;;;;;;;20.00;12.73;;;0.50;99.90;;;;;;5079120;28;20915;-77
2022/12/10 05:02:56;;;;;;;16.70;10.50;;;0.50;99.90;;;;;;5079463;28;20474;-77
2022/12/10 05:05:23;;;;;;;19.83;12.03;;;0.40;99.90;;;;;;5074676;28;20478;-77
2022/12/10 05:07:50;;;;;;;22.77;12.17;;;0.40;99.90;;;;;;5076511;28;20483;-77
2022/12/10 05:10:17;;;;;;;17.47;10.87;;;0.40;99.90;;;;;;5070041;28;20495;-77
2022/12/10 05:12:44;;;;;;;19.17;11.60;;;0.40;99.90;;;;;;5082823;28;20881;-77
2022/12/10 05:15:12;;;;;;;16.40;11.53;;;0.40;99.90;;;;;;5069405;28;20491;-75
2022/12/10 05:17:39;;;;;;;18.10;12.37;;;0.50;99.90;;;;;;5071863;28;20504;-74
2022/12/10 05:20:08;;;;;;;19.63;11.70;;;0.60;99.90;;;;;;5070373;28;20483;-74
2022/12/10 05:25:19;;;;;;;25.00;13.80;;;0.70;99.90;;;;;;5072850;28;20809;-74
2022/12/10 05:27:46;;;;;;;19.00;12.20;;;0.70;99.90;;;;;;5071783;28;20483;-74
2022/12/10 05:30:14;;;;;;;19.80;13.80;;;0.70;99.90;;;;;;5081075;28;20836;-74
2022/12/10 05:32:41;;;;;;;24.73;15.60;;;0.70;99.90;;;;;;5075584;28;20495;-74
2022/12/10 05:35:09;;;;;;;20.70;16.37;;;0.70;99.90;;;;;;5072550;28;20503;-74
2022/12/10 05:37:36;;;;;;;25.23;13.67;;;0.70;99.90;;;;;;5071959;28;20490;-74
2022/12/10 05:40:05;;;;;;;18.37;12.07;;;0.60;99.90;;;;;;5079874;28;20467;-75
2022/12/10 05:42:32;;;;;;;20.00;13.47;;;0.70;99.90;;;;;;5071332;28;20479;-75
2022/12/10 05:44:59;;;;;;;17.97;12.07;;;0.60;99.90;;;;;;5075417;28;20621;-74
2022/12/10 05:47:27;;;;;;;18.23;12.80;;;0.60;99.90;;;;;;5078818;28;21092;-74
2022/12/10 05:49:54;;;;;;;21.17;14.10;;;0.60;99.90;;;;;;5081136;28;20447;-74
2022/12/10 05:52:21;;;;;;;24.23;15.13;;;0.60;99.90;;;;;;5068569;28;20483;-74
2022/12/10 05:54:48;;;;;;;22.70;13.50;;;0.60;99.90;;;;;;5083050;28;20510;-74
2022/12/10 05:57:15;;;;;;;24.27;15.70;;;0.70;99.90;;;;;;5087464;28;20494;-74
2022/12/10 05:59:43;;;;;;;27.37;16.23;;;0.80;99.90;;;;;;5075638;28;20479;-75
2022/12/10 06:02:10;;;;;;;24.10;15.80;;;0.70;99.90;;;;;;5066450;28;20495;-76
2022/12/10 06:04:38;;;;;;;20.07;14.10;;;0.70;99.90;;;;;;5065965;28;20479;-76
2022/12/10 06:07:05;;;;;;;22.27;14.43;;;0.70;99.90;;;;;;5066908;28;20475;-76
2022/12/10 06:09:32;;;;;;;18.60;13.53;;;0.70;99.90;;;;;;5077591;28;20466;-77
2022/12/10 06:11:59;;;;;;;22.00;15.50;;;0.70;99.90;;;;;;5080775;28;20900;-77
2022/12/10 06:14:26;;;;;;;32.50;17.67;;;0.70;99.90;;;;;;5065077;28;20517;-77
2022/12/10 06:16:53;;;;;;;101.53;61.23;;;0.60;99.90;;;;;;5069372;28;20503;-76
2022/12/10 06:19:20;;;;;;;53.00;33.87;;;0.60;99.90;;;;;;5076081;28;20919;-76
2022/12/10 06:21:48;;;;;;;28.63;17.17;;;0.70;99.90;;;;;;5070107;28;20836;-76
2022/12/10 06:24:15;;;;;;;29.93;16.93;;;0.80;99.90;;;;;;5066074;28;20573;-76
2022/12/10 06:26:42;;;;;;;23.60;16.40;;;0.90;99.90;;;;;;5073681;28;20532;-76
2022/12/10 06:29:10;;;;;;;27.70;16.63;;;0.90;99.90;;;;;;5069113;28;20511;-76
2022/12/10 06:31:37;;;;;;;25.60;16.93;;;0.80;99.90;;;;;;5068514;28;20517;-76
2022/12/10 06:34:04;;;;;;;28.27;18.27;;;0.90;99.90;;;;;;5067972;28;21000;-76
2022/12/10 06:36:31;;;;;;;34.60;19.43;;;0.90;99.90;;;;;;5068417;28;20482;-76
2022/12/10 06:38:59;;;;;;;23.80;15.07;;;0.90;99.90;;;;;;5075679;28;21026;-76
2022/12/10 06:41:26;;;;;;;29.23;16.67;;;0.80;99.90;;;;;;5075684;28;20495;-76
2022/12/10 06:43:53;;;;;;;28.73;18.37;;;0.80;99.90;;;;;;5076226;28;20560;-76
2022/12/10 06:46:21;;;;;;;28.47;17.47;;;0.90;99.90;;;;;;5073757;28;20552;-76
2022/12/10 06:48:48;;;;;;;28.90;17.93;;;0.80;99.90;;;;;;5078284;28;20528;-76
2022/12/10 06:51:17;;;;;;;25.80;18.23;;;0.90;99.90;;;;;;5078549;28;20487;-76
2022/12/10 06:53:44;;;;;;;27.70;18.27;;;0.80;99.90;;;;;;5073929;28;20994;-77
2022/12/10 06:56:15;;;;;;;31.73;20.80;;;0.80;99.90;;;;;;5067099;28;20522;-77
2022/12/10 06:58:43;;;;;;;25.07;18.40;;;0.90;99.90;;;;;;5070264;28;20946;-77
2022/12/10 07:01:12;;;;;;;32.43;18.50;;;0.90;99.90;;;;;;5065489;28;20460;-77
2022/12/10 07:03:39;;;;;;;26.60;17.90;;;0.90;99.90;;;;;;5067843;28;20823;-76
2022/12/10 07:06:08;;;;;;;29.50;19.60;;;0.90;99.90;;;;;;5070605;28;20487;-77
2022/12/10 07:08:35;;;;;;;26.87;17.63;;;0.80;99.90;;;;;;5064399;28;20491;-77
2022/12/10 07:11:04;;;;;;;23.90;16.60;;;0.80;99.90;;;;;;5070558;28;20488;-77
2022/12/10 07:13:33;;;;;;;22.63;16.43;;;0.90;99.90;;;;;;5069440;28;20491;-77
2022/12/10 07:16:00;;;;;;;27.67;16.00;;;1.00;99.90;;;;;;5073550;28;20518;-77
2022/12/10 07:18:27;;;;;;;30.97;17.80;;;1.00;99.90;;;;;;5073653;28;21200;-77
2022/12/10 07:20:54;;;;;;;23.43;15.90;;;1.00;99.90;;;;;;5070141;28;20463;-77
2022/12/10 07:23:21;;;;;;;25.20;16.70;;;1.00;99.90;;;;;;5070122;28;20498;-77
2022/12/10 07:25:48;;;;;;;24.43;15.73;;;1.00;99.90;;;;;;5069190;28;20491;-77
2022/12/10 07:28:15;;;;;;;25.30;16.37;;;1.10;99.90;;;;;;5064014;28;20496;-77
2022/12/10 07:30:43;;;;;;;20.00;14.47;;;1.10;99.90;;;;;;5071879;28;20483;-77
2022/12/10 07:33:10;;;;;;;20.23;13.53;;;1.10;99.90;;;;;;5065742;28;20479;-77
2022/12/10 07:35:39;;;;;;;21.13;13.67;;;1.10;99.90;;;;;;5068179;28;20672;-77
2022/12/10 07:38:06;;;;;;;21.37;15.23;;;1.10;99.90;;;;;;5068642;28;20443;-77
2022/12/10 07:40:33;;;;;;;27.83;16.13;;;1.10;99.90;;;;;;5066064;28;20495;-77
2022/12/10 07:43:00;;;;;;;25.37;16.53;;;1.10;99.90;;;;;;5067119;28;20486;-77
2022/12/10 07:45:27;;;;;;;23.67;16.50;;;1.10;99.90;;;;;;5066733;28;20503;-77
2022/12/10 07:47:55;;;;;;;31.37;20.30;;;1.20;99.90;;;;;;5066571;28;20550;-77
2022/12/10 07:50:22;;;;;;;25.57;18.73;;;1.10;99.90;;;;;;5068997;28;20484;-77
2022/12/10 07:52:49;;;;;;;29.10;20.87;;;1.10;99.90;;;;;;5072559;28;20444;-77
2022/12/10 07:55:16;;;;;;;24.20;16.90;;;1.20;99.90;;;;;;5064513;28;20519;-77
2022/12/10 07:57:43;;;;;;;21.77;16.67;;;1.20;99.90;;;;;;5065242;28;20533;-77
2022/12/10 08:00:11;;;;;;;41.10;25.80;;;1.30;99.90;;;;;;5066158;28;20547;-76
2022/12/10 08:02:39;;;;;;;51.13;25.63;;;1.40;99.90;;;;;;5066172;28;20460;-77
2022/12/10 08:05:08;;;;;;;34.30;20.97;;;1.50;99.90;;;;;;5071743;28;20499;-77
2022/12/10 08:07:35;;;;;;;31.80;17.60;;;1.60;99.90;;;;;;5070412;28;20456;-77
2022/12/10 08:10:02;;;;;;;31.93;17.97;;;1.60;99.90;;;;;;5069320;28;20497;-76
2022/12/10 08:12:29;;;;;;;29.10;18.70;;;1.50;99.90;;;;;;5066452;28;20540;-77
2022/12/10 08:14:56;;;;;;;28.97;19.10;;;1.40;99.90;;;;;;5074401;28;20496;-76
2022/12/10 08:17:23;;;;;;;30.93;17.83;;;1.50;99.90;;;;;;5067556;28;20566;-77
2022/12/10 08:19:50;;;;;;;27.33;17.30;;;1.50;99.90;;;;;;5069066;28;20491;-77
2022/12/10 08:22:18;;;;;;;33.37;19.50;;;1.60;99.90;;;;;;5067097;28;20516;-76
2022/12/10 08:24:45;;;;;;;30.17;17.27;;;1.60;99.90;;;;;;5072341;28;20487;-76
2022/12/10 08:27:12;;;;;;;32.20;19.10;;;1.70;99.90;;;;;;5061694;28;20467;-76
2022/12/10 08:29:39;;;;;;;29.47;19.40;;;1.60;99.90;;;;;;5067986;28;20883;-77
2022/12/10 08:32:06;;;;;;;27.17;16.40;;;1.60;99.90;;;;;;5067108;28;20495;-76
2022/12/10 08:34:33;;;;;;;32.27;20.03;;;1.60;99.90;;;;;;5067854;28;21023;-76
2022/12/10 08:37:00;;;;;;;30.20;19.53;;;1.70;99.90;;;;;;5070356;28;20525;-76
2022/12/10 08:39:28;;;;;;;27.47;18.83;;;1.70;99.90;;;;;;5064319;28;21151;-76
2022/12/10 08:41:55;;;;;;;28.70;18.67;;;1.70;99.90;;;;;;5064712;28;20476;-76
2022/12/10 08:44:22;;;;;;;35.83;22.13;;;1.60;99.90;;;;;;5061977;28;20885;-76
2022/12/10 08:46:49;;;;;;;32.93;21.77;;;1.70;99.90;;;;;;5069828;28;20474;-76
2022/12/10 08:49:16;;;;;;;32.53;22.17;;;1.50;99.90;;;;;;5066381;28;20481;-76
2022/12/10 08:51:43;;;;;;;30.50;20.87;;;1.40;99.90;;;;;;5068596;28;20470;-76
2022/12/10 08:54:10;;;;;;;32.20;20.37;;;1.40;99.90;;;;;;5070732;28;20504;-76
2022/12/10 08:56:39;;;;;;;27.07;19.00;;;1.40;99.90;;;;;;5074720;28;20522;-76
2022/12/10 08:59:07;;;;;;;26.27;18.17;;;1.40;99.90;;;;;;5084819;28;20542;-76
2022/12/10 09:01:34;;;;;;;33.17;20.97;;;1.40;99.90;;;;;;5075511;28;21005;-76
2022/12/10 09:04:01;;;;;;;34.17;21.17;;;1.40;99.90;;;;;;5086018;28;20483;-76
2022/12/10 09:06:28;;;;;;;35.17;21.13;;;1.50;99.90;;;;;;5074601;28;20516;-77
2022/12/10 09:08:55;;;;;;;33.87;21.17;;;1.60;99.90;;;;;;5075055;28;20482;-77
2022/12/10 09:11:24;;;;;;;34.00;19.87;;;1.70;99.90;;;;;;5080606;28;20727;-77
2022/12/10 09:13:53;;;;;;;33.50;20.43;;;1.80;99.90;;;;;;5080199;28;20527;-77
2022/12/10 09:16:21;;;;;;;27.10;18.70;;;1.80;99.90;;;;;;5077918;28;21001;-77
2022/12/10 09:18:48;;;;;;;31.93;18.93;;;1.80;99.90;;;;;;5075170;28;20532;-77
2022/12/10 09:21:18;;;;;;;32.50;20.20;;;1.80;99.90;;;;;;5085001;28;20482;-77
2022/12/10 09:23:45;;;;;;;23.83;17.20;;;1.80;99.90;;;;;;5073101;28;20550;-77
2022/12/10 09:26:15;;;;;;;25.83;17.10;;;1.80;99.90;;;;;;5073661;28;20548;-76
2022/12/10 09:28:42;;;;;;;24.97;15.60;;;1.80;99.90;;;;;;5079215;28;20554;-77
2022/12/10 09:31:11;;;;;;;29.67;16.57;;;1.90;99.90;;;;;;5073963;28;20495;-76
2022/12/10 09:33:39;;;;;;;24.60;15.53;;;2.00;99.90;;;;;;5069455;28;20468;-77
2022/12/10 09:36:07;;;;;;;27.50;15.70;;;2.10;99.90;;;;;;5075786;28;20518;-77
2022/12/10 09:38:35;;;;;;;24.07;14.70;;;2.10;99.90;;;;;;5077089;28;20555;-77
2022/12/10 09:41:03;;;;;;;26.83;16.70;;;2.00;99.90;;;;;;5077196;28;20962;-76
2022/12/10 09:43:46;;;;;;;20.17;14.37;;;1.90;99.90;;;;;;5073997;28;20458;-76
2022/12/10 09:46:24;;;;;;;25.57;13.97;;;2.00;99.90;;;;;;5089133;28;20454;-76
2022/12/10 09:49:02;;;;;;;21.97;13.30;;;2.20;99.90;;;;;;5068879;28;20510;-76
2022/12/10 09:51:32;;;;;;;23.10;14.43;;;2.20;99.90;;;;;;5066634;28;20513;-76
2022/12/10 09:54:01;;;;;;;23.87;16.30;;;2.30;99.90;;;;;;5082375;28;20466;-77
2022/12/10 09:56:32;;;;;;;25.17;12.87;;;2.30;99.90;;;;;;5081094;28;20482;-77
2022/12/10 09:59:04;;;;;;;19.90;13.80;;;2.30;99.90;;;;;;5081634;28;20495;-77
2022/12/10 10:01:36;;;;;;;20.07;12.97;;;2.40;99.90;;;;;;5072428;28;20467;-76
2022/12/10 10:04:05;;;;;;;15.70;10.20;;;2.30;99.90;;;;;;5074014;28;20452;-76
2022/12/10 10:06:32;;;;;;;18.43;12.13;;;2.40;99.90;;;;;;5072530;28;20489;-76
2022/12/10 10:09:03;;;;;;;19.70;13.87;;;2.60;99.90;;;;;;5077599;28;20575;-76
2022/12/10 10:11:32;;;;;;;19.23;12.93;;;2.60;99.90;;;;;;5069106;28;20474;-76
2022/12/10 10:14:02;;;;;;;20.70;12.63;;;2.70;99.90;;;;;;5068300;28;20554;-76
2022/12/10 10:16:35;;;;;;;21.27;13.20;;;2.70;99.90;;;;;;5071100;28;21025;-76
2022/12/10 10:19:04;;;;;;;17.17;11.13;;;2.60;99.90;;;;;;5082367;28;20463;-76
2022/12/10 10:21:34;;;;;;;16.27;12.70;;;2.40;99.90;;;;;;5074782;28;20550;-76
2022/12/10 10:24:02;;;;;;;18.03;13.53;;;2.30;99.90;;;;;;5068522;28;20545;-76
2022/12/10 10:26:29;;;;;;;18.77;13.43;;;2.30;99.90;;;;;;5070859;28;20497;-76
2022/12/10 10:29:00;;;;;;;20.23;14.47;;;2.20;99.90;;;;;;5077793;28;20580;-76
2022/12/10 10:31:30;;;;;;;18.67;12.17;;;2.30;99.90;;;;;;5071791;28;20470;-76
2022/12/10 10:34:00;;;;;;;23.33;12.23;;;2.30;99.90;;;;;;5075764;28;20544;-76
2022/12/10 10:36:29;;;;;;;20.70;13.60;;;2.30;99.90;;;;;;5078397;28;20568;-76
2022/12/10 10:38:56;;;;;;;19.03;12.63;;;2.50;99.90;;;;;;5077179;28;20455;-76
2022/12/10 10:41:25;;;;;;;27.97;13.53;;;2.50;99.90;;;;;;5079060;28;21045;-76
2022/12/10 10:44:00;;;;;;;21.20;12.93;;;2.40;99.90;;;;;;5083880;28;20454;-76
2022/12/10 10:46:27;;;;;;;18.27;12.90;;;2.20;99.90;;;;;;5076442;28;20451;-76
2022/12/10 10:49:15;;;;;;;24.80;12.67;;;2.20;99.90;;;;;;5070681;28;20492;-76
2022/12/10 10:51:46;;;;;;;20.03;12.50;;;2.40;99.90;;;;;;5078510;28;20538;-76
2022/12/10 10:54:31;;;;;;;20.40;14.57;;;2.50;99.90;;;;;;5072127;28;20463;-76
2022/12/10 10:56:58;;;;;;;20.70;13.60;;;2.30;99.90;;;;;;5069608;28;20579;-76
2022/12/10 10:59:31;;;;;;;20.13;13.30;;;2.10;99.90;;;;;;5065413;28;20476;-76
2022/12/10 11:02:04;;;;;;;21.40;16.67;;;2.10;99.90;;;;;;5072038;28;20547;-76
2022/12/10 11:04:38;;;;;;;20.90;14.20;;;2.00;99.90;;;;;;5067960;28;20978;-76
2022/12/10 11:07:13;;;;;;;22.70;15.10;;;2.20;99.90;;;;;;5078673;28;20456;-76
2022/12/10 11:09:40;;;;;;;20.70;13.53;;;2.20;99.90;;;;;;5072588;28;20478;-77
2022/12/10 11:12:23;;;;;;;22.00;13.83;;;2.10;99.90;;;;;;5073098;28;20475;-76
2022/12/10 11:14:50;;;;;;;22.63;14.33;;;2.10;99.90;;;;;;5078572;28;20475;-76
2022/12/10 11:17:21;;;;;;;19.90;13.63;;;1.90;99.90;;;;;;5068852;28;20510;-76
2022/12/10 11:19:58;;;;;;;20.87;13.10;;;2.00;99.90;;;;;;5070964;28;20463;-77
2022/12/10 11:22:27;;;;;;;22.57;12.07;;;2.00;99.90;;;;;;5073682;28;20515;-77
2022/12/10 11:24:54;;;;;;;16.30;13.33;;;2.10;99.90;;;;;;5071782;28;20479;-76
2022/12/10 11:27:39;;;;;;;20.93;12.37;;;2.20;99.90;;;;;;5065130;28;20506;-76
2022/12/10 11:30:10;;;;;;;22.13;13.60;;;2.20;99.90;;;;;;5073700;28;21007;-76
2022/12/10 11:32:58;;;;;;;21.27;14.87;;;2.20;99.90;;;;;;5069630;28;20490;-77
2022/12/10 11:35:39;;;;;;;21.77;12.60;;;2.00;99.90;;;;;;5069476;28;20563;-76
2022/12/10 11:38:16;;;;;;;21.97;13.47;;;1.90;99.90;;;;;;5066845;28;20491;-77
2022/12/10 11:40:49;;;;;;;19.27;14.10;;;1.90;99.90;;;;;;5071270;28;20471;-76
2022/12/10 11:43:31;;;;;;;25.90;16.07;;;1.90;99.90;;;;;;5070696;28;20496;-76
2022/12/10 11:46:14;;;;;;;23.50;14.27;;;1.90;99.90;;;;;;5076491;28;21008;-77
2022/12/10 11:48:53;;;;;;;24.80;14.00;;;1.80;99.90;;;;;;5074863;28;21229;-77
2022/12/10 11:51:30;;;;;;;23.10;14.47;;;1.70;99.90;;;;;;5068205;28;20864;-75
2022/12/10 11:54:07;;;;;;;23.50;14.27;;;1.80;99.90;;;;;;5067882;28;20467;-75
2022/12/10 11:56:39;;;;;;;22.63;13.70;;;1.80;99.90;;;;;;5066424;28;20479;-75
2022/12/10 11:59:17;;;;;;;23.57;15.83;;;1.80;99.90;;;;;;5067405;28;20499;-75
2022/12/10 12:02:06;;;;;;;25.97;15.07;;;1.80;99.90;;;;;;5062263;28;20541;-75
2022/12/10 12:04:51;;;;;;;20.97;13.73;;;1.80;99.90;;;;;;5069439;28;20554;-75
2022/12/10 12:07:34;;;;;;;26.10;13.27;;;1.70;99.90;;;;;;5070310;28;20483;-75
2022/12/10 12:10:27;;;;;;;24.27;14.40;;;1.70;99.90;;;;;;5066461;28;20841;-75
2022/12/10 12:12:59;;;;;;;29.23;15.30;;;1.70;99.90;;;;;;5068401;28;20544;-75
2022/12/10 12:15:32;;;;;;;27.07;14.90;;;1.80;99.90;;;;;;5068981;28;20925;-75
2022/12/10 12:18:03;;;;;;;24.90;15.20;;;1.80;99.90;;;;;;5075677;28;20570;-75
2022/12/10 12:20:34;;;;;;;23.83;14.37;;;1.80;99.90;;;;;;5065674;28;20553;-75
2022/12/10 12:23:10;;;;;;;25.73;14.10;;;1.70;99.90;;;;;;5073557;28;20526;-75
2022/12/10 12:25:41;;;;;;;29.43;13.70;;;1.70;99.90;;;;;;5077322;28;20551;-75
2022/12/10 12:28:15;;;;;;;26.20;15.67;;;1.60;99.90;;;;;;5074495;28;21456;-75
2022/12/10 12:30:45;;;;;;;20.37;13.80;;;1.60;99.90;;;;;;5072389;28;20494;-76
2022/12/10 12:33:21;;;;;;;27.67;15.83;;;1.60;99.90;;;;;;5064955;28;20572;-76
2022/12/10 12:35:51;;;;;;;25.63;15.67;;;1.60;99.90;;;;;;5071040;28;20980;-76
2022/12/10 12:38:29;;;;;;;23.97;15.00;;;1.60;99.90;;;;;;5065712;28;20519;-76
2022/12/10 12:41:00;;;;;;;27.97;15.43;;;1.70;99.90;;;;;;5073957;28;20926;-76
2022/12/10 12:43:38;;;;;;;25.47;15.23;;;1.70;99.90;;;;;;5067612;28;20443;-76
2022/12/10 12:46:12;;;;;;;26.80;14.33;;;1.70;99.90;;;;;;5085698;28;20548;-76
2022/12/10 12:48:47;;;;;;;19.87;12.20;;;1.70;99.90;;;;;;5062557;28;20540;-76
2022/12/10 12:51:19;;;;;;;25.30;14.37;;;1.80;99.90;;;;;;5063126;28;20502;-76
2022/12/10 12:53:48;;;;;;;25.07;13.90;;;1.80;99.90;;;;;;5064209;28;20911;-76
2022/12/10 12:56:26;;;;;;;23.90;15.87;;;1.80;99.90;;;;;;5079216;28;20455;-76
2022/12/10 12:59:04;;;;;;;20.87;14.23;;;1.90;99.90;;;;;;5075555;28;20551;-76
2022/12/10 13:01:37;;;;;;;20.93;12.47;;;1.90;99.90;;;;;;5080067;28;20482;-76